createdAt,value
2018-07-09T00:00:37.953Z,53.94
2018-07-09T00:03:10.343Z,54.65
2018-07-09T00:05:42.140Z,54.53
2018-07-09T00:08:14.665Z,54.60
2018-07-09T00:10:58.760Z,54.56
2018-07-09T00:13:29.577Z,54.96
2018-07-09T00:15:59.672Z,54.98
2018-07-09T00:18:29.839Z,55.00
2018-07-09T00:20:59.996Z,55.58
2018-07-09T00:23:36.906Z,55.50
2018-07-09T00:26:06.343Z,56.18
2018-07-09T00:28:36.985Z,55.94
2018-07-09T00:31:07.220Z,56.46
2018-07-09T00:33:37.464Z,55.88
2018-07-09T00:36:06.900Z,56.01
2018-07-09T00:38:36.424Z,55.51
2018-07-09T00:41:06.400Z,55.77
2018-07-09T00:43:37.588Z,55.42
2018-07-09T00:46:06.969Z,55.27
2018-07-09T00:48:36.988Z,55.53
2018-07-09T00:51:06.441Z,55.33
2018-07-09T00:53:36.930Z,55.26
2018-07-09T00:56:06.996Z,55.30
2018-07-09T00:58:36.973Z,55.33
2018-07-09T01:01:06.893Z,55.86
2018-07-09T01:03:36.250Z,55.64
2018-07-09T01:06:05.655Z,55.71
2018-07-09T01:08:38.528Z,55.84
2018-07-09T01:11:19.625Z,56.32
2018-07-09T01:13:48.987Z,56.49
2018-07-09T01:16:18.416Z,56.82
2018-07-09T01:18:48.116Z,57.47
2018-07-09T01:21:17.529Z,57.18
2018-07-09T01:23:47.826Z,57.23
2018-07-09T01:26:17.544Z,57.37
2018-07-09T01:28:46.916Z,57.66
2018-07-09T01:31:17.248Z,57.75
2018-07-09T01:33:47.400Z,57.74
2018-07-09T01:36:17.358Z,57.75
2018-07-09T01:38:46.712Z,58.16
2018-07-09T01:41:16.094Z,57.81
2018-07-09T01:43:48.850Z,58.25
2018-07-09T01:46:18.475Z,58.38
2018-07-09T01:48:49.069Z,57.78
2018-07-09T01:51:18.436Z,58.21
2018-07-09T01:53:47.805Z,58.25
2018-07-09T01:56:17.168Z,57.85
2018-07-09T01:58:47.419Z,58.00
2018-07-09T02:01:17.152Z,57.93
2018-07-09T02:03:48.584Z,58.44
2018-07-09T02:06:17.977Z,58.33
2018-07-09T02:08:47.346Z,58.44
2018-07-09T02:11:18.818Z,58.02
2018-07-09T02:13:50.293Z,58.30
2018-07-09T02:16:19.732Z,58.11
2018-07-09T02:18:49.943Z,58.41
2018-07-09T02:21:20.036Z,58.41
2018-07-09T02:23:50.578Z,58.71
2018-07-09T02:26:20.289Z,58.28
2018-07-09T02:28:50.070Z,58.32
2018-07-09T02:31:20.823Z,58.63
2018-07-09T02:33:53.393Z,58.71
2018-07-09T02:36:22.748Z,58.70
2018-07-09T02:38:52.148Z,58.38
2018-07-09T02:41:21.504Z,58.58
2018-07-09T02:43:51.421Z,59.06
2018-07-09T02:46:21.752Z,58.56
2018-07-09T02:48:53.747Z,58.55
2018-07-09T02:51:23.507Z,58.50
2018-07-09T02:53:54.418Z,58.55
2018-07-09T02:56:24.361Z,58.77
2018-07-09T02:58:58.375Z,58.38
2018-07-09T03:01:27.772Z,58.23
2018-07-09T03:03:57.245Z,58.31
2018-07-09T03:06:26.628Z,58.83
2018-07-09T03:08:55.968Z,58.98
2018-07-09T03:11:25.355Z,58.94
2018-07-09T03:13:55.965Z,58.93
2018-07-09T03:16:25.308Z,58.63
2018-07-09T03:18:54.637Z,58.60
2018-07-09T03:21:25.204Z,59.00
2018-07-09T03:23:55.273Z,58.38
2018-07-09T03:26:24.872Z,58.65
2018-07-09T03:28:54.221Z,58.29
2018-07-09T03:31:23.608Z,58.48
2018-07-09T03:33:54.824Z,58.34
2018-07-09T03:36:24.173Z,58.64
2018-07-09T03:38:53.500Z,58.93
2018-07-09T03:41:26.440Z,58.77
2018-07-09T03:43:55.799Z,58.91
2018-07-09T03:46:25.202Z,58.69
2018-07-09T03:48:54.611Z,58.80
2018-07-09T03:51:24.905Z,58.52
2018-07-09T03:53:54.263Z,58.47
2018-07-09T03:56:23.629Z,58.65
2018-07-09T03:58:53.043Z,58.48
2018-07-09T04:01:22.449Z,58.30
2018-07-09T04:03:52.548Z,58.30
2018-07-09T04:06:21.977Z,58.47
2018-07-09T04:08:52.044Z,58.56
2018-07-09T04:11:21.444Z,58.90
2018-07-09T04:13:50.797Z,57.91
2018-07-09T04:16:20.156Z,58.18
2018-07-09T04:18:50.284Z,57.72
2018-07-09T04:21:20.196Z,57.59
2018-07-09T04:23:50.018Z,57.17
2018-07-09T04:26:21.068Z,56.54
2018-07-09T04:28:51.430Z,55.45
2018-07-09T04:31:21.253Z,55.03
2018-07-09T04:33:51.845Z,54.53
2018-07-09T04:36:24.516Z,54.49
2018-07-09T04:38:55.538Z,54.93
2018-07-09T04:41:25.488Z,53.85
2018-07-09T04:43:57.158Z,53.68
2018-07-09T04:46:26.576Z,53.65
2018-07-09T04:48:55.924Z,53.31
2018-07-09T04:51:25.291Z,53.69
2018-07-09T04:53:54.642Z,53.80
2018-07-09T04:56:25.752Z,53.71
2018-07-09T04:58:55.260Z,53.44
2018-07-09T05:01:24.609Z,53.59
2018-07-09T05:03:53.938Z,53.40
2018-07-09T05:06:23.297Z,53.18
2018-07-09T05:08:52.814Z,53.04
2018-07-09T05:11:24.950Z,52.73
2018-07-09T05:13:54.926Z,52.62
2018-07-09T05:16:24.348Z,53.26
2018-07-09T05:18:53.694Z,52.56
2018-07-09T05:21:23.032Z,52.65
2018-07-09T05:23:52.387Z,53.02
2018-07-09T05:26:22.373Z,52.95
2018-07-09T05:28:52.833Z,52.37
2018-07-09T05:31:22.540Z,52.35
2018-07-09T05:33:51.947Z,53.00
2018-07-09T05:36:22.597Z,52.48
2018-07-09T05:38:52.029Z,53.16
2018-07-09T05:41:21.700Z,53.00
2018-07-09T05:43:51.040Z,52.88
2018-07-09T05:46:22.228Z,52.76
2018-07-09T05:48:52.180Z,52.88
2018-07-09T05:51:22.038Z,52.91
2018-07-09T05:53:52.435Z,53.38
2018-07-09T05:56:21.818Z,52.53
2018-07-09T05:58:52.183Z,52.25
2018-07-09T06:01:21.719Z,53.02
2018-07-09T06:03:51.288Z,52.94
2018-07-09T06:06:20.692Z,52.25
2018-07-09T06:08:51.157Z,52.19
2018-07-09T06:11:20.874Z,51.88
2018-07-09T06:13:51.470Z,52.10
2018-07-09T06:16:20.840Z,52.10
2018-07-09T06:18:50.973Z,51.89
2018-07-09T06:21:20.376Z,52.00
2018-07-09T06:23:50.846Z,52.46
2018-07-09T06:26:20.241Z,51.17
2018-07-09T06:28:49.680Z,51.29
2018-07-09T06:31:20.112Z,51.83
2018-07-09T06:33:49.482Z,51.89
2018-07-09T06:36:19.147Z,51.54
2018-07-09T06:38:48.852Z,51.59
2018-07-09T06:41:18.247Z,51.51
2018-07-09T06:43:48.041Z,51.18
2018-07-09T06:46:18.624Z,51.36
2018-07-09T06:48:47.941Z,51.37
2018-07-09T06:51:20.387Z,51.08
2018-07-09T06:53:51.277Z,51.14
2018-07-09T06:56:20.685Z,51.34
2018-07-09T06:58:50.434Z,51.23
2018-07-09T07:01:19.788Z,50.72
2018-07-09T07:03:49.237Z,50.33
2018-07-09T07:06:18.600Z,50.53
2018-07-09T07:08:48.141Z,50.77
2018-07-09T07:11:18.043Z,50.75
2018-07-09T07:13:47.411Z,47.84
2018-07-09T07:16:17.102Z,49.54
2018-07-09T07:21:10.696Z,48.42
2018-07-09T07:23:40.086Z,49.04
2018-07-09T07:26:09.425Z,48.83
2018-07-09T07:28:39.381Z,49.30
2018-07-09T07:31:14.497Z,48.97
2018-07-09T07:33:44.453Z,49.81
2018-07-09T07:36:14.467Z,49.18
2018-07-09T07:38:43.893Z,48.87
2018-07-09T07:41:13.315Z,48.89
2018-07-09T07:43:44.292Z,48.49
2018-07-09T07:46:13.647Z,48.82
2018-07-09T07:48:43.636Z,48.99
2018-07-09T07:51:13.017Z,48.96
2018-07-09T07:53:43.368Z,48.46
2018-07-09T07:56:13.896Z,48.15
2018-07-09T07:58:43.259Z,48.69
2018-07-09T08:01:12.645Z,48.50
2018-07-09T08:03:42.033Z,47.87
2018-07-09T08:06:11.410Z,48.06
2018-07-09T08:08:40.788Z,47.63
2018-07-09T08:11:11.954Z,48.40
2018-07-09T08:13:41.413Z,47.82
2018-07-09T08:16:10.899Z,47.29
2018-07-09T08:18:40.324Z,46.95
2018-07-09T08:21:09.735Z,46.23
2018-07-09T08:23:39.559Z,46.83
2018-07-09T08:26:09.180Z,46.54
2018-07-09T08:28:38.660Z,46.67
2018-07-09T08:31:08.148Z,47.04
2018-07-09T08:33:37.600Z,46.57
2018-07-09T08:36:07.097Z,45.98
2018-07-09T08:38:36.445Z,47.00
2018-07-09T08:41:06.192Z,47.09
2018-07-09T08:43:36.064Z,46.80
2018-07-09T08:46:05.673Z,44.96
2018-07-09T08:48:35.134Z,45.61
2018-07-09T08:51:04.563Z,45.46
2018-07-09T08:53:34.687Z,45.71
2018-07-09T08:56:04.229Z,46.65
2018-07-09T08:58:33.971Z,43.48
2018-07-09T09:01:04.006Z,44.51
2018-07-09T09:03:33.807Z,43.54
2018-07-09T09:06:03.139Z,45.14
2018-07-09T09:08:32.575Z,44.76
2018-07-09T09:11:01.967Z,45.19
2018-07-09T09:13:39.715Z,44.23
2018-07-09T09:16:09.964Z,42.95
2018-07-09T09:18:39.353Z,44.02
2018-07-09T09:21:08.817Z,43.53
2018-07-09T09:23:38.213Z,43.72
2018-07-09T09:26:09.175Z,43.54
2018-07-09T09:28:38.580Z,42.85
2018-07-09T09:31:08.300Z,43.55
2018-07-09T09:33:37.655Z,43.51
2018-07-09T09:36:07.033Z,42.96
2018-07-09T09:38:36.416Z,42.64
2018-07-09T09:41:06.128Z,42.98
2018-07-09T09:43:35.476Z,43.00
2018-07-09T09:46:04.885Z,42.30
2018-07-09T09:48:34.217Z,42.13
2018-07-09T09:51:03.584Z,42.74
2018-07-09T09:53:32.972Z,41.67
2018-07-09T09:56:02.375Z,41.52
2018-07-09T09:58:31.729Z,40.32
2018-07-09T10:01:01.076Z,41.21
2018-07-09T10:03:30.439Z,42.09
2018-07-09T10:05:59.764Z,40.59
2018-07-09T10:08:29.185Z,40.51
2018-07-09T10:10:59.017Z,41.00
2018-07-09T10:13:28.995Z,42.05
2018-07-09T10:15:58.365Z,41.77
2018-07-09T10:18:27.739Z,41.34
2018-07-09T10:20:57.788Z,40.46
2018-07-09T10:23:27.175Z,41.65
2018-07-09T10:25:56.490Z,39.50
2018-07-09T10:28:25.864Z,40.04
2018-07-09T10:30:55.224Z,41.08
2018-07-09T10:33:24.613Z,41.23
2018-07-09T10:35:53.985Z,41.95
2018-07-09T10:38:28.354Z,41.03
2018-07-09T10:40:58.052Z,41.46
2018-07-09T10:43:27.424Z,40.52
2018-07-09T10:45:57.204Z,38.73
2018-07-09T10:48:26.579Z,39.96
2018-07-09T10:50:57.008Z,39.69
2018-07-09T10:53:26.375Z,39.89
2018-07-09T10:55:56.496Z,41.32
2018-07-09T10:58:25.886Z,40.20
2018-07-09T11:00:55.786Z,39.41
2018-07-09T11:03:25.141Z,39.67
2018-07-09T11:05:55.542Z,39.41
2018-07-09T11:08:25.957Z,40.51
2018-07-09T11:10:57.413Z,40.06
2018-07-09T11:13:26.786Z,39.45
2018-07-09T11:15:56.219Z,39.64
2018-07-09T11:18:25.637Z,39.58
2018-07-09T11:20:56.045Z,40.11
2018-07-09T11:23:25.441Z,39.34
2018-07-09T11:25:55.376Z,39.35
2018-07-09T11:28:24.829Z,39.10
2018-07-09T11:30:54.343Z,39.56
2018-07-09T11:33:24.965Z,40.32
2018-07-09T11:35:55.316Z,40.50
2018-07-09T11:38:24.839Z,40.89
2018-07-09T11:40:54.185Z,40.05
2018-07-09T11:43:23.562Z,40.92
2018-07-09T11:45:53.041Z,40.73
2018-07-09T11:48:23.180Z,40.81
2018-07-09T11:50:52.544Z,41.26
2018-07-09T11:53:22.124Z,40.71
2018-07-09T11:55:52.372Z,41.30
2018-07-09T11:58:21.828Z,40.98
2018-07-09T12:00:51.224Z,39.83
2018-07-09T12:03:20.909Z,40.14
2018-07-09T12:05:50.299Z,40.72
2018-07-09T12:08:19.679Z,42.18
2018-07-09T12:10:49.049Z,41.70
2018-07-09T12:13:18.436Z,41.96
2018-07-09T12:15:47.825Z,40.32
2018-07-09T12:18:17.180Z,40.14
2018-07-09T12:20:46.568Z,41.66
2018-07-09T12:23:16.744Z,42.08
2018-07-09T12:25:46.113Z,40.03
2018-07-09T12:28:15.691Z,41.37
2018-07-09T12:30:45.054Z,40.71
2018-07-09T12:33:14.455Z,40.68
2018-07-09T12:35:44.015Z,42.25
2018-07-09T12:38:13.682Z,41.94
2018-07-09T12:40:43.033Z,41.14
2018-07-09T12:43:12.396Z,41.20
2018-07-09T12:45:42.238Z,40.24
2018-07-09T12:48:11.596Z,40.12
2018-07-09T12:50:41.304Z,40.88
2018-07-09T12:53:11.874Z,39.66
2018-07-09T12:55:41.233Z,39.24
2018-07-09T12:58:10.796Z,39.92
2018-07-09T13:00:41.301Z,39.30
2018-07-09T13:03:10.648Z,38.57
2018-07-09T13:05:39.987Z,38.54
2018-07-09T13:08:09.351Z,38.53
2018-07-09T13:10:39.640Z,38.32
2018-07-09T13:13:09.004Z,38.33
2018-07-09T13:15:38.400Z,38.56
2018-07-09T13:18:09.512Z,39.03
2018-07-09T13:20:38.868Z,40.04
2018-07-09T13:23:08.218Z,38.64
2018-07-09T13:25:37.574Z,38.94
2018-07-09T13:28:06.940Z,37.88
2018-07-09T13:30:36.808Z,40.45
2018-07-09T13:33:06.645Z,39.59
2018-07-09T13:35:36.593Z,39.97
2018-07-09T13:38:06.287Z,39.86
2018-07-09T13:40:35.663Z,39.44
2018-07-09T13:43:06.473Z,39.86
2018-07-09T13:45:36.085Z,40.63
2018-07-09T13:48:05.432Z,39.81
2018-07-09T13:50:35.239Z,39.77
2018-07-09T13:53:05.574Z,38.87
2018-07-09T13:55:34.945Z,38.35
2018-07-09T13:58:04.595Z,38.59
2018-07-09T14:00:34.092Z,38.00
2018-07-09T14:03:03.444Z,38.23
2018-07-09T14:05:33.139Z,38.96
2018-07-09T14:08:02.520Z,39.46
2018-07-09T14:10:35.060Z,39.21
2018-07-09T14:13:04.451Z,38.67
2018-07-09T14:15:33.857Z,38.84
2018-07-09T14:18:03.224Z,38.87
2018-07-09T14:20:34.851Z,38.48
2018-07-09T14:23:05.076Z,38.42
2018-07-09T14:25:34.447Z,38.84
2018-07-09T14:28:03.859Z,38.55
2018-07-09T14:30:33.682Z,38.28
2018-07-09T14:33:03.112Z,38.16
2018-07-09T14:35:32.497Z,39.15
2018-07-09T14:38:02.226Z,39.52
2018-07-09T14:40:31.576Z,38.05
2018-07-09T14:43:02.228Z,38.53
2018-07-09T14:45:31.602Z,38.72
2018-07-09T14:48:00.967Z,39.59
2018-07-09T14:50:30.308Z,39.04
2018-07-09T14:52:59.632Z,38.60
2018-07-09T14:55:28.986Z,39.27
2018-07-09T14:57:58.335Z,39.41
2018-07-09T15:00:27.709Z,39.74
2018-07-09T15:02:57.908Z,39.00
2018-07-09T15:05:27.984Z,39.60
2018-07-09T15:07:58.770Z,39.01
2018-07-09T15:10:28.137Z,39.03
2018-07-09T15:12:58.317Z,39.08
2018-07-09T15:15:27.753Z,38.71
2018-07-09T15:17:57.116Z,39.20
2018-07-09T15:20:26.456Z,39.26
2018-07-09T15:22:55.812Z,38.94
2018-07-09T15:25:25.180Z,38.95
2018-07-09T15:27:54.528Z,39.17
2018-07-09T15:30:24.475Z,39.38
2018-07-09T15:32:58.465Z,39.26
2018-07-09T15:35:28.484Z,38.79
2018-07-09T15:37:57.831Z,38.72
2018-07-09T15:40:27.520Z,38.34
2018-07-09T15:42:58.254Z,39.30
2018-07-09T15:45:28.282Z,38.59
2018-07-09T15:47:57.979Z,39.41
2018-07-09T15:50:27.348Z,39.01
2018-07-09T15:52:57.052Z,39.92
2018-07-09T15:55:26.392Z,40.12
2018-07-09T15:57:55.761Z,40.61
2018-07-09T16:00:25.152Z,40.37
2018-07-09T16:02:55.084Z,40.63
2018-07-09T16:05:24.954Z,40.93
2018-07-09T16:07:55.474Z,40.84
2018-07-09T16:10:25.444Z,39.65
2018-07-09T16:12:54.874Z,39.92
2018-07-09T16:15:25.024Z,39.60
2018-07-09T16:17:54.984Z,39.35
2018-07-09T16:20:24.416Z,39.16
2018-07-09T16:22:54.291Z,38.95
2018-07-09T16:25:29.910Z,39.27
2018-07-09T16:27:59.765Z,39.30
2018-07-09T16:30:31.772Z,39.34
2018-07-09T16:33:01.551Z,39.59
2018-07-09T16:35:30.877Z,39.47
2018-07-09T16:38:00.268Z,40.00
2018-07-09T16:40:29.654Z,40.62
2018-07-09T16:42:59.156Z,40.56
2018-07-09T16:45:30.068Z,40.88
2018-07-09T16:47:59.868Z,40.41
2018-07-09T16:50:29.609Z,40.91
2018-07-09T16:52:58.966Z,40.42
2018-07-09T16:55:28.427Z,40.09
2018-07-09T16:57:57.835Z,41.78
2018-07-09T17:00:27.539Z,42.06
2018-07-09T17:02:57.555Z,41.75
2018-07-09T17:08:29.621Z,42.45
2018-07-09T17:10:59.068Z,42.93
2018-07-09T17:13:29.422Z,43.55
2018-07-09T17:15:58.986Z,43.08
2018-07-09T17:18:28.314Z,43.76
2018-07-09T17:20:57.638Z,44.39
2018-07-09T17:23:27.821Z,44.38
2018-07-09T17:25:57.532Z,45.09
2018-07-09T17:28:26.927Z,45.74
2018-07-09T17:30:56.654Z,45.30
2018-07-09T17:33:26.381Z,45.69
2018-07-09T17:35:56.624Z,46.28
2018-07-09T17:38:25.948Z,46.79
2018-07-09T17:40:55.596Z,47.26
2018-07-09T17:43:25.748Z,47.92
2018-07-09T17:45:57.453Z,47.88
2018-07-09T17:48:27.631Z,47.99
2018-07-09T17:50:58.900Z,48.53
2018-07-09T17:53:30.759Z,48.15
2018-07-09T17:56:00.252Z,48.52
2018-07-09T17:58:30.001Z,48.32
2018-07-09T18:00:59.359Z,48.28
2018-07-09T18:03:30.080Z,47.78
2018-07-09T18:06:00.881Z,48.25
2018-07-09T18:08:34.923Z,47.67
2018-07-09T18:11:13.833Z,48.35
2018-07-09T18:13:43.589Z,47.87
2018-07-09T18:16:13.100Z,47.85
2018-07-09T18:18:43.094Z,47.76
2018-07-09T18:21:12.433Z,47.44
2018-07-09T18:23:45.661Z,47.59
2018-07-09T18:26:15.188Z,46.96
2018-07-09T18:28:45.199Z,47.58
2018-07-09T18:31:14.621Z,47.40
2018-07-09T18:33:44.034Z,47.07
2018-07-09T18:36:14.371Z,47.58
2018-07-09T18:38:44.070Z,47.15
2018-07-09T18:41:13.641Z,46.84
2018-07-09T18:43:43.190Z,46.30
2018-07-09T18:46:12.515Z,46.51
2018-07-09T18:48:41.886Z,46.19
2018-07-09T18:51:12.074Z,45.44
2018-07-09T18:53:41.644Z,45.25
2018-07-09T18:56:11.083Z,45.66
2018-07-09T18:58:40.512Z,45.49
2018-07-09T19:01:11.316Z,45.05
2018-07-09T19:03:41.240Z,45.46
2018-07-09T19:07:21.154Z,44.97
2018-07-09T19:09:52.280Z,45.46
2018-07-09T19:12:21.725Z,45.36
2018-07-09T19:14:52.301Z,44.96
2018-07-09T19:18:01.286Z,45.04
2018-07-09T19:20:42.680Z,45.48
2018-07-09T19:23:11.557Z,45.79
2018-07-09T19:25:40.053Z,45.89
2018-07-09T19:28:08.605Z,45.54
2018-07-09T19:33:05.065Z,45.97
2018-07-09T19:35:33.253Z,46.33
2018-07-09T19:38:01.554Z,46.49
2018-07-09T19:40:29.820Z,46.45
2018-07-09T19:42:58.031Z,46.28
2018-07-09T19:45:26.715Z,46.13
2018-07-09T19:47:55.156Z,46.28
2018-07-09T19:50:23.472Z,46.03
2018-07-09T19:52:52.277Z,46.61
2018-07-09T19:55:20.462Z,46.75
2018-07-09T19:57:48.644Z,46.64
2018-07-09T20:00:16.815Z,47.31
2018-07-09T20:02:44.985Z,47.20
2018-07-09T20:05:14.121Z,47.24
2018-07-09T20:07:42.324Z,47.76
2018-07-09T20:10:15.645Z,47.98
2018-07-09T20:12:48.953Z,48.43
2018-07-09T20:15:22.531Z,48.51
2018-07-09T20:17:50.728Z,48.93
2018-07-09T20:20:18.944Z,49.46
2018-07-09T20:22:47.804Z,49.51
2018-07-09T20:25:17.933Z,50.00
2018-07-09T20:27:46.311Z,49.61
2018-07-09T20:30:15.036Z,49.88
2018-07-09T20:32:43.255Z,50.32
2018-07-09T20:35:12.724Z,50.09
2018-07-09T20:37:41.029Z,50.44
2018-07-09T20:40:10.282Z,50.47
2018-07-09T20:42:38.636Z,50.73
2018-07-09T20:45:06.885Z,51.34
2018-07-09T20:47:36.356Z,50.98
2018-07-09T20:50:05.767Z,50.97
2018-07-09T20:52:36.064Z,51.10
2018-07-09T20:55:10.544Z,51.33
2018-07-09T20:57:38.748Z,51.70
2018-07-09T21:00:06.929Z,51.80
2018-07-09T21:02:35.120Z,51.51
2018-07-09T21:07:39.348Z,51.78
2018-07-09T21:10:07.547Z,51.32
2018-07-09T21:12:39.889Z,51.48
2018-07-09T21:15:15.102Z,51.22
2018-07-09T21:17:45.088Z,51.35
2018-07-09T21:20:13.428Z,51.13
2018-07-09T21:22:41.872Z,51.73
2018-07-09T21:25:13.197Z,51.46
2018-07-09T21:27:42.116Z,51.94
2018-07-09T21:30:12.192Z,52.92
2018-07-09T21:32:40.648Z,52.98
2018-07-09T21:35:09.045Z,52.98
2018-07-09T21:37:37.303Z,52.68
2018-07-09T21:40:09.145Z,53.80
2018-07-09T21:42:37.772Z,55.59
2018-07-09T21:45:16.444Z,56.58
2018-07-09T21:47:45.258Z,56.92
2018-07-09T21:50:13.564Z,56.79
2018-07-09T21:52:41.740Z,56.63
2018-07-09T21:55:13.150Z,56.02
2018-07-09T21:57:41.356Z,56.06
2018-07-09T22:00:10.577Z,56.21
2018-07-09T22:02:39.289Z,56.00
2018-07-09T22:05:13.076Z,56.16
2018-07-09T22:07:41.279Z,56.25
2018-07-09T22:10:09.448Z,56.39
2018-07-09T22:12:37.630Z,56.13
2018-07-09T22:15:05.973Z,55.96
2018-07-09T22:17:34.143Z,55.79
2018-07-09T22:20:02.390Z,55.73
2018-07-09T22:22:32.183Z,55.83
2018-07-09T22:25:00.370Z,56.33
2018-07-09T22:27:28.920Z,56.34
2018-07-09T22:29:57.260Z,57.01
2018-07-09T22:32:26.643Z,56.88
2018-07-09T22:34:55.968Z,56.91
2018-07-09T22:37:25.356Z,57.37
2018-07-09T22:39:54.972Z,57.66
2018-07-09T22:42:24.522Z,58.01
2018-07-09T22:44:53.868Z,58.25
2018-07-09T22:47:23.232Z,57.85
2018-07-09T22:49:52.552Z,58.19
2018-07-09T22:52:22.084Z,57.95
2018-07-09T22:56:02.088Z,58.36
2018-07-09T22:58:31.438Z,58.56
2018-07-09T23:01:02.052Z,58.59
2018-07-09T23:03:31.439Z,58.99
2018-07-09T23:06:01.780Z,58.71
2018-07-09T23:08:31.146Z,59.12
2018-07-09T23:13:15.399Z,58.87
2018-07-09T23:15:55.921Z,58.45
2018-07-09T23:18:36.429Z,58.65
2018-07-09T23:21:16.748Z,58.96
2018-07-09T23:23:44.948Z,58.23
2018-07-09T23:26:13.521Z,58.37
2018-07-09T23:28:41.712Z,58.09
2018-07-09T23:31:09.888Z,57.29
2018-07-09T23:33:38.705Z,58.05
2018-07-09T23:36:06.891Z,57.40
2018-07-09T23:38:35.081Z,58.03
2018-07-09T23:41:03.254Z,57.91
2018-07-09T23:43:31.428Z,57.48
2018-07-09T23:45:59.929Z,57.38
2018-07-09T23:48:28.118Z,57.63
2018-07-09T23:50:56.327Z,57.27
2018-07-09T23:53:25.321Z,57.15
2018-07-09T23:58:06.575Z,57.04
